createdAt,value
2023-01-09T00:00:47.649Z,976.70
2023-01-09T00:01:47.638Z,976.68
2023-01-09T00:02:47.635Z,976.68
2023-01-09T00:03:47.633Z,976.62
2023-01-09T00:04:47.627Z,976.65
2023-01-09T00:05:47.602Z,976.67
2023-01-09T00:06:47.591Z,976.62
2023-01-09T00:07:47.581Z,976.59
2023-01-09T00:08:47.562Z,976.56
2023-01-09T00:09:47.580Z,976.51
2023-01-09T00:10:47.567Z,976.56
2023-01-09T00:11:47.532Z,976.61
2023-01-09T00:12:47.525Z,976.56
2023-01-09T00:13:47.530Z,976.62
2023-01-09T00:14:47.515Z,976.55
2023-01-09T00:15:47.505Z,976.49
2023-01-09T00:16:47.482Z,976.49
2023-01-09T00:17:47.473Z,976.46
2023-01-09T00:18:47.465Z,976.45
2023-01-09T00:19:47.483Z,976.45
2023-01-09T00:20:47.434Z,976.41
2023-01-09T00:21:47.437Z,976.40
2023-01-09T00:22:47.424Z,976.38
2023-01-09T00:23:47.418Z,976.38
2023-01-09T00:24:47.417Z,976.39
2023-01-09T00:25:47.389Z,976.36
2023-01-09T00:26:47.378Z,976.40
2023-01-09T00:27:47.366Z,976.36
2023-01-09T00:28:47.348Z,976.38
2023-01-09T00:29:47.363Z,976.26
2023-01-09T00:30:47.352Z,976.32
2023-01-09T00:31:47.321Z,976.27
2023-01-09T00:32:47.307Z,976.32
2023-01-09T00:33:47.314Z,976.27
2023-01-09T00:34:47.308Z,976.26
2023-01-09T00:35:47.287Z,976.27
2023-01-09T00:36:47.268Z,976.28
2023-01-09T00:37:47.263Z,976.30
2023-01-09T00:38:47.243Z,976.27
2023-01-09T00:39:47.257Z,976.27
2023-01-09T00:40:47.221Z,976.23
2023-01-09T00:41:47.250Z,976.26
2023-01-09T00:42:47.212Z,976.24
2023-01-09T00:43:47.202Z,976.22
2023-01-09T00:44:47.202Z,976.23
2023-01-09T00:45:47.212Z,976.23
2023-01-09T00:46:47.165Z,976.24
2023-01-09T00:47:47.164Z,976.22
2023-01-09T00:48:47.134Z,976.25
2023-01-09T00:49:47.144Z,976.26
2023-01-09T00:50:47.126Z,976.28
2023-01-09T00:51:47.107Z,976.33
2023-01-09T00:52:47.098Z,976.31
2023-01-09T00:53:47.090Z,976.34
2023-01-09T00:54:47.086Z,976.35
2023-01-09T00:55:47.067Z,976.29
2023-01-09T00:56:47.056Z,976.35
2023-01-09T00:57:47.046Z,976.38
2023-01-09T00:58:47.048Z,976.34
2023-01-09T00:59:47.053Z,976.31
2023-01-09T01:00:47.030Z,976.30
2023-01-09T01:01:47.118Z,976.30
2023-01-09T01:02:47.016Z,976.31
2023-01-09T01:03:46.996Z,976.30
2023-01-09T01:04:46.995Z,976.27
2023-01-09T01:05:46.969Z,976.30
2023-01-09T01:06:46.949Z,976.30
2023-01-09T01:07:46.951Z,976.33
2023-01-09T01:08:46.931Z,976.33
2023-01-09T01:09:47.027Z,976.38
2023-01-09T01:10:46.915Z,976.37
2023-01-09T01:11:46.902Z,976.35
2023-01-09T01:12:46.885Z,976.25
2023-01-09T01:13:46.872Z,976.29
2023-01-09T01:14:46.885Z,976.30
2023-01-09T01:15:46.866Z,976.27
2023-01-09T01:16:46.892Z,976.28
2023-01-09T01:17:46.831Z,976.31
2023-01-09T01:18:46.824Z,976.31
2023-01-09T01:19:46.830Z,976.28
2023-01-09T01:20:46.794Z,976.26
2023-01-09T01:21:46.794Z,976.29
2023-01-09T01:22:46.773Z,976.25
2023-01-09T01:23:46.775Z,976.26
2023-01-09T01:24:46.783Z,976.19
2023-01-09T01:25:46.758Z,976.19
2023-01-09T01:26:46.755Z,976.18
2023-01-09T01:27:46.725Z,976.19
2023-01-09T01:28:46.738Z,976.22
2023-01-09T01:29:46.727Z,976.18
2023-01-09T01:30:46.731Z,976.19
2023-01-09T01:31:46.690Z,976.13
2023-01-09T01:32:46.672Z,976.19
2023-01-09T01:33:46.669Z,976.16
2023-01-09T01:34:47.786Z,976.16
2023-01-09T01:35:46.659Z,976.10
2023-01-09T01:36:46.631Z,976.12
2023-01-09T01:37:46.643Z,976.13
2023-01-09T01:38:46.609Z,976.07
2023-01-09T01:39:46.611Z,976.12
2023-01-09T01:40:46.612Z,976.06
2023-01-09T01:41:46.584Z,976.13
2023-01-09T01:42:46.574Z,976.12
2023-01-09T01:43:46.565Z,976.09
2023-01-09T01:44:46.573Z,976.09
2023-01-09T01:45:46.617Z,976.11
2023-01-09T01:46:46.545Z,976.08
2023-01-09T01:47:46.553Z,976.04
2023-01-09T01:48:46.502Z,976.13
2023-01-09T01:49:46.502Z,976.06
2023-01-09T01:50:46.506Z,976.13
2023-01-09T01:51:46.477Z,976.05
2023-01-09T02:04:21.939Z,975.97
2023-01-09T02:04:30.684Z,975.94
2023-01-09T02:05:30.687Z,975.91
2023-01-09T02:06:30.671Z,975.90
2023-01-09T02:07:30.641Z,975.92
2023-01-09T02:08:30.641Z,975.91
2023-01-09T02:09:30.620Z,975.91
2023-01-09T02:10:30.629Z,975.91
2023-01-09T02:11:30.628Z,975.88
2023-01-09T02:12:30.606Z,975.90
2023-01-09T02:13:30.583Z,975.86
2023-01-09T02:14:30.589Z,975.88
2023-01-09T02:15:30.577Z,975.82
2023-01-09T02:16:30.557Z,975.77
2023-01-09T02:17:30.532Z,975.77
2023-01-09T02:18:30.537Z,975.76
2023-01-09T02:19:30.532Z,975.79
2023-01-09T02:20:30.523Z,975.75
2023-01-09T02:21:30.503Z,975.69
2023-01-09T02:22:30.491Z,975.73
2023-01-09T02:23:30.481Z,975.73
2023-01-09T02:24:30.465Z,975.75
2023-01-09T02:25:30.465Z,975.77
2023-01-09T02:26:30.451Z,975.70
2023-01-09T02:27:30.435Z,975.71
2023-01-09T02:28:30.426Z,975.68
2023-01-09T02:29:30.417Z,975.64
2023-01-09T02:30:30.416Z,975.72
2023-01-09T02:31:30.430Z,975.62
2023-01-09T02:32:30.397Z,975.69
2023-01-09T02:33:30.411Z,975.69
2023-01-09T02:34:30.367Z,975.66
2023-01-09T02:35:30.360Z,975.64
2023-01-09T02:36:30.423Z,975.78
2023-01-09T02:37:30.329Z,975.73
2023-01-09T02:38:30.332Z,975.70
2023-01-09T02:39:30.321Z,975.69
2023-01-09T02:40:30.317Z,975.68
2023-01-09T02:41:30.327Z,975.68
2023-01-09T02:42:30.281Z,975.67
2023-01-09T02:43:30.264Z,975.68
2023-01-09T02:44:30.260Z,975.72
2023-01-09T02:45:30.293Z,975.69
2023-01-09T02:46:30.243Z,975.65
2023-01-09T02:47:30.238Z,975.62
2023-01-09T02:48:30.226Z,975.60
2023-01-09T02:49:30.204Z,975.64
2023-01-09T02:50:30.210Z,975.54
2023-01-09T02:51:30.185Z,975.62
2023-01-09T02:52:30.184Z,975.58
2023-01-09T02:53:30.176Z,975.63
2023-01-09T02:54:30.241Z,975.54
2023-01-09T02:55:30.142Z,975.49
2023-01-09T02:56:30.130Z,975.50
2023-01-09T02:57:30.147Z,975.55
2023-01-09T02:58:30.110Z,975.45
2023-01-09T02:59:30.114Z,975.45
2023-01-09T03:00:30.109Z,975.48
2023-01-09T03:01:30.164Z,975.44
2023-01-09T03:02:30.068Z,975.48
2023-01-09T03:03:30.049Z,975.42
2023-01-09T03:04:30.054Z,975.50
2023-01-09T03:05:30.061Z,975.46
2023-01-09T03:06:30.029Z,975.50
2023-01-09T03:07:30.009Z,975.47
2023-01-09T03:08:30.000Z,975.48
2023-01-09T03:09:30.012Z,975.50
2023-01-09T03:10:29.999Z,975.48
2023-01-09T03:11:29.969Z,975.50
2023-01-09T03:12:29.976Z,975.50
2023-01-09T03:13:29.940Z,975.48
2023-01-09T03:14:29.956Z,975.48
2023-01-09T03:15:29.941Z,975.51
2023-01-09T03:16:29.996Z,975.51
2023-01-09T03:17:29.908Z,975.53
2023-01-09T03:18:29.919Z,975.54
2023-01-09T03:19:29.916Z,975.54
2023-01-09T03:20:29.903Z,975.51
2023-01-09T03:21:29.864Z,975.50
2023-01-09T03:22:29.859Z,975.50
2023-01-09T03:23:29.858Z,975.52
2023-01-09T03:24:29.834Z,975.53
2023-01-09T03:25:29.838Z,975.63
2023-01-09T03:26:29.820Z,975.64
2023-01-09T03:27:29.813Z,975.60
2023-01-09T03:28:29.797Z,975.69
2023-01-09T03:29:29.792Z,975.63
2023-01-09T03:30:29.788Z,975.61
2023-01-09T03:31:29.828Z,975.66
2023-01-09T03:32:29.755Z,975.59
2023-01-09T03:33:29.762Z,975.65
2023-01-09T03:34:29.739Z,975.69
2023-01-09T03:35:29.737Z,975.63
2023-01-09T03:36:29.719Z,975.66
2023-01-09T03:37:29.701Z,975.60
2023-01-09T03:38:29.690Z,975.63
2023-01-09T03:39:29.681Z,975.66
2023-01-09T03:40:29.690Z,975.57
2023-01-09T03:41:29.651Z,975.58
2023-01-09T03:42:29.654Z,975.56
2023-01-09T03:43:29.631Z,975.61
2023-01-09T03:44:29.634Z,975.63
2023-01-09T03:45:29.647Z,975.62
2023-01-09T03:46:29.622Z,975.64
2023-01-09T03:47:29.594Z,975.64
2023-01-09T03:48:29.583Z,975.66
2023-01-09T03:49:29.566Z,975.61
2023-01-09T03:50:29.577Z,975.59
2023-01-09T03:51:29.576Z,975.63
2023-01-09T03:52:29.583Z,975.58
2023-01-09T03:53:29.535Z,975.60
2023-01-09T03:54:29.523Z,975.66
2023-01-09T03:55:29.507Z,975.63
2023-01-09T03:56:29.519Z,975.60
2023-01-09T03:57:29.500Z,975.68
2023-01-09T03:58:29.484Z,975.68
2023-01-09T03:59:29.476Z,975.62
2023-01-09T04:00:29.459Z,975.65
2023-01-09T04:01:29.586Z,975.67
2023-01-09T04:02:29.439Z,975.68
2023-01-09T04:03:29.513Z,975.69
2023-01-09T04:04:29.419Z,975.74
2023-01-09T04:05:29.401Z,975.77
2023-01-09T04:06:29.413Z,975.83
2023-01-09T04:07:29.380Z,975.75
2023-01-09T04:08:29.379Z,975.84
2023-01-09T04:09:29.363Z,975.88
2023-01-09T04:10:29.363Z,975.85
2023-01-09T04:11:29.355Z,975.88
2023-01-09T04:12:29.340Z,975.90
2023-01-09T04:13:29.320Z,975.98
2023-01-09T04:14:29.321Z,976.00
2023-01-09T04:15:29.303Z,976.07
2023-01-09T04:16:29.387Z,976.13
2023-01-09T04:17:29.284Z,976.10
2023-01-09T04:18:29.278Z,976.15
2023-01-09T04:19:29.265Z,976.14
2023-01-09T04:20:29.253Z,976.20
2023-01-09T04:21:29.261Z,976.14
2023-01-09T04:22:29.241Z,976.19
2023-01-09T04:23:29.215Z,976.14
2023-01-09T04:24:29.209Z,976.06
2023-01-09T04:25:29.191Z,976.05
2023-01-09T04:26:29.196Z,976.05
2023-01-09T04:27:29.182Z,976.09
2023-01-09T04:28:29.159Z,976.10
2023-01-09T04:29:29.156Z,976.15
2023-01-09T04:30:29.147Z,976.18
2023-01-09T04:31:29.207Z,976.23
2023-01-09T04:32:29.128Z,976.18
2023-01-09T04:33:29.109Z,976.14
2023-01-09T04:34:29.099Z,976.15
2023-01-09T04:35:29.098Z,976.18
2023-01-09T04:36:29.093Z,976.33
2023-01-09T04:37:29.067Z,976.35
2023-01-09T04:38:29.061Z,976.31
2023-01-09T04:39:29.055Z,976.39
2023-01-09T04:40:29.047Z,976.44
2023-01-09T04:41:29.032Z,976.47
2023-01-09T04:42:29.017Z,976.52
2023-01-09T04:43:29.013Z,976.53
2023-01-09T04:44:28.999Z,976.55
2023-01-09T04:45:29.050Z,976.61
2023-01-09T04:46:28.986Z,976.57
2023-01-09T04:47:28.959Z,976.62
2023-01-09T04:48:28.952Z,976.60
2023-01-09T04:49:28.933Z,976.63
2023-01-09T04:50:31.227Z,976.64
2023-01-09T04:51:28.951Z,976.70
2023-01-09T04:52:28.914Z,976.70
2023-01-09T04:53:28.900Z,976.77
2023-01-09T04:54:28.895Z,976.71
2023-01-09T04:55:28.876Z,976.73
2023-01-09T04:56:28.885Z,976.80
2023-01-09T04:57:28.856Z,976.83
2023-01-09T04:58:28.847Z,976.91
2023-01-09T04:59:28.839Z,976.95
2023-01-09T05:00:28.827Z,976.96
2023-01-09T05:01:28.899Z,976.94
2023-01-09T05:02:28.810Z,976.91
2023-01-09T05:03:28.804Z,976.93
2023-01-09T05:04:28.829Z,976.93
2023-01-09T05:05:28.771Z,976.94
2023-01-09T05:06:28.790Z,976.97
2023-01-09T05:07:28.759Z,976.91
2023-01-09T05:08:28.751Z,976.82
2023-01-09T05:09:28.736Z,976.88
2023-01-09T05:10:28.721Z,976.94
2023-01-09T05:11:28.721Z,976.92
2023-01-09T05:12:28.704Z,976.94
2023-01-09T05:13:28.689Z,976.96
2023-01-09T05:14:28.678Z,976.96
2023-01-09T05:15:28.659Z,976.94
2023-01-09T05:16:28.756Z,976.92
2023-01-09T05:17:28.652Z,976.94
2023-01-09T05:18:28.636Z,977.01
2023-01-09T05:19:28.625Z,976.99
2023-01-09T05:20:28.623Z,977.05
2023-01-09T05:21:28.615Z,977.04
2023-01-09T05:22:28.593Z,977.10
2023-01-09T05:23:28.582Z,977.10
2023-01-09T05:24:28.604Z,977.11
2023-01-09T05:25:28.564Z,977.12
2023-01-09T05:26:28.575Z,977.13
2023-01-09T05:27:28.541Z,977.19
2023-01-09T05:28:28.533Z,977.15
2023-01-09T05:29:28.523Z,977.17
2023-01-09T05:30:28.507Z,977.15
2023-01-09T05:31:28.529Z,977.19
2023-01-09T05:32:28.489Z,977.18
2023-01-09T05:33:28.484Z,977.23
2023-01-09T05:34:28.481Z,977.17
2023-01-09T05:35:28.458Z,977.16
2023-01-09T05:36:28.457Z,977.15
2023-01-09T05:37:28.477Z,977.25
2023-01-09T05:38:28.419Z,977.23
2023-01-09T05:39:28.419Z,977.17
2023-01-09T05:40:32.292Z,977.22
2023-01-09T05:41:29.422Z,977.20
2023-01-09T05:42:28.385Z,977.18
2023-01-09T05:43:28.370Z,977.21
2023-01-09T05:44:28.371Z,977.25
2023-01-09T05:45:28.421Z,977.26
2023-01-09T05:46:28.355Z,977.28
2023-01-09T05:47:28.338Z,977.30
2023-01-09T05:48:28.313Z,977.28
2023-01-09T05:49:28.321Z,977.33
2023-01-09T05:50:28.299Z,977.36
2023-01-09T05:51:28.301Z,977.30
2023-01-09T05:52:28.275Z,977.26
2023-01-09T05:53:28.267Z,977.32
2023-01-09T05:54:28.274Z,977.32
2023-01-09T05:55:28.245Z,977.35
2023-01-09T05:56:28.254Z,977.30
2023-01-09T05:57:28.233Z,977.37
2023-01-09T05:58:28.213Z,977.36
2023-01-09T05:59:28.214Z,977.40
2023-01-09T06:00:28.210Z,977.35
2023-01-09T06:01:28.318Z,977.41
2023-01-09T06:02:28.219Z,977.44
2023-01-09T06:03:28.178Z,977.48
2023-01-09T06:04:28.154Z,977.55
2023-01-09T06:05:28.135Z,977.50
2023-01-09T06:06:28.174Z,977.50
2023-01-09T06:07:28.125Z,977.53
2023-01-09T06:08:28.121Z,977.58
2023-01-09T06:09:28.112Z,977.57
2023-01-09T06:10:28.084Z,977.63
2023-01-09T06:11:28.087Z,977.65
2023-01-09T06:12:28.077Z,977.60
2023-01-09T06:13:28.049Z,977.66
2023-01-09T06:14:28.047Z,977.61
2023-01-09T06:15:28.111Z,977.68
2023-01-09T06:16:28.053Z,977.70
2023-01-09T06:17:28.010Z,977.72
2023-01-09T06:18:27.992Z,977.78
2023-01-09T06:19:27.996Z,977.78
2023-01-09T06:20:27.975Z,977.81
2023-01-09T06:21:27.988Z,977.83
2023-01-09T06:22:27.971Z,977.81
2023-01-09T06:23:28.068Z,977.79
2023-01-09T06:24:27.932Z,977.88
2023-01-09T06:25:27.932Z,977.88
2023-01-09T06:26:27.924Z,977.85
2023-01-09T06:27:27.921Z,977.95
2023-01-09T06:28:27.891Z,977.96
2023-01-09T06:29:27.886Z,977.89
2023-01-09T06:30:27.885Z,977.96
2023-01-09T06:31:27.942Z,977.98
2023-01-09T06:32:27.845Z,978.05
2023-01-09T06:33:27.845Z,977.99
2023-01-09T06:34:27.825Z,978.01
2023-01-09T06:35:27.830Z,978.02
2023-01-09T06:36:27.826Z,978.04
2023-01-09T06:37:27.827Z,978.02
2023-01-09T06:38:27.797Z,978.03
2023-01-09T06:39:27.781Z,978.03
2023-01-09T06:40:27.769Z,978.08
2023-01-09T06:41:27.772Z,978.01
2023-01-09T06:42:27.740Z,978.08
2023-01-09T06:43:27.760Z,978.05
2023-01-09T06:44:27.722Z,978.05
2023-01-09T06:45:27.711Z,978.06
2023-01-09T06:46:27.766Z,978.06
2023-01-09T06:47:27.697Z,978.10
2023-01-09T06:48:27.685Z,978.15
2023-01-09T06:49:27.672Z,978.09
2023-01-09T06:50:27.670Z,978.17
2023-01-09T06:51:27.675Z,978.14
2023-01-09T06:52:27.631Z,978.13
2023-01-09T06:53:27.635Z,978.19
2023-01-09T06:54:28.752Z,978.17
2023-01-09T06:55:27.677Z,978.21
2023-01-09T06:56:27.603Z,978.16
2023-01-09T06:57:27.601Z,978.21
2023-01-09T06:58:27.571Z,978.21
2023-01-09T06:59:27.574Z,978.25
2023-01-09T07:00:27.560Z,978.30
2023-01-09T07:01:27.635Z,978.28
2023-01-09T07:02:27.545Z,978.32
2023-01-09T07:03:27.487Z,978.35
2023-01-09T07:04:27.516Z,978.36
2023-01-09T07:05:27.510Z,978.35
2023-01-09T07:06:27.528Z,978.38
2023-01-09T07:07:27.508Z,978.42
2023-01-09T07:08:27.478Z,978.46
2023-01-09T07:09:27.465Z,978.49
2023-01-09T07:10:27.396Z,978.45
2023-01-09T07:11:27.439Z,978.48
2023-01-09T07:12:27.398Z,978.55
2023-01-09T07:13:27.389Z,978.56
2023-01-09T07:14:27.371Z,978.63
2023-01-09T07:15:27.350Z,978.62
2023-01-09T07:16:27.343Z,978.62
2023-01-09T07:17:27.348Z,978.63
2023-01-09T07:18:27.311Z,978.67
2023-01-09T07:19:27.311Z,978.68
2023-01-09T07:20:27.294Z,978.67
2023-01-09T07:21:27.281Z,978.70
2023-01-09T07:22:27.278Z,978.71
2023-01-09T07:23:27.261Z,978.71
2023-01-09T07:24:27.265Z,978.71
2023-01-09T07:25:27.260Z,978.66
2023-01-09T07:26:27.222Z,978.63
2023-01-09T07:27:27.253Z,978.69
2023-01-09T07:28:27.203Z,978.74
2023-01-09T07:29:27.191Z,978.73
2023-01-09T07:30:27.187Z,978.75
2023-01-09T07:31:27.289Z,978.89
2023-01-09T07:32:27.184Z,978.81
2023-01-09T07:33:27.166Z,978.77
2023-01-09T07:34:27.144Z,978.73
2023-01-09T07:35:27.136Z,978.79
2023-01-09T07:36:27.122Z,978.91
2023-01-09T07:37:27.142Z,978.86
2023-01-09T07:38:27.104Z,978.85
2023-01-09T07:39:27.099Z,978.86
2023-01-09T07:40:27.086Z,978.91
2023-01-09T07:41:27.116Z,978.90
2023-01-09T07:42:27.067Z,978.83
2023-01-09T07:43:27.047Z,978.96
2023-01-09T07:44:27.042Z,978.96
2023-01-09T07:45:27.032Z,979.04
2023-01-09T07:46:27.057Z,979.04
2023-01-09T07:47:27.031Z,979.06
2023-01-09T07:48:27.014Z,979.05
2023-01-09T07:49:27.062Z,979.05
2023-01-09T07:50:26.980Z,979.07
2023-01-09T07:51:26.970Z,979.08
2023-01-09T07:52:26.961Z,979.16
2023-01-09T07:53:26.954Z,979.12
2023-01-09T07:54:26.947Z,979.08
2023-01-09T07:55:26.931Z,979.10
2023-01-09T07:56:26.911Z,979.09
2023-01-09T07:57:26.915Z,979.08
2023-01-09T07:58:26.892Z,979.11
2023-01-09T07:59:26.885Z,979.13
2023-01-09T08:00:26.873Z,979.16
2023-01-09T08:01:26.940Z,979.19
2023-01-09T08:02:26.885Z,979.13
2023-01-09T08:03:26.881Z,979.14
2023-01-09T08:04:26.824Z,979.10
2023-01-09T08:05:26.831Z,979.12
2023-01-09T08:06:26.805Z,979.14
2023-01-09T08:07:26.815Z,979.17
2023-01-09T08:08:26.795Z,979.16
2023-01-09T08:09:26.784Z,979.10
2023-01-09T08:10:26.781Z,979.13
2023-01-09T08:11:26.778Z,979.18
2023-01-09T08:12:26.759Z,979.09
2023-01-09T08:13:26.752Z,979.12
2023-01-09T08:14:26.717Z,979.16
2023-01-09T08:15:26.723Z,979.08
2023-01-09T08:16:26.709Z,979.11
2023-01-09T08:17:26.729Z,979.11
2023-01-09T08:18:26.685Z,979.11
2023-01-09T08:19:26.677Z,979.12
2023-01-09T08:20:26.731Z,979.20
2023-01-09T08:21:26.658Z,979.20
2023-01-09T08:22:26.670Z,979.18
2023-01-09T08:23:26.644Z,979.18
2023-01-09T08:24:26.623Z,979.23
2023-01-09T08:25:26.616Z,979.14
2023-01-09T08:26:26.601Z,979.17
2023-01-09T08:27:26.615Z,979.11
2023-01-09T08:28:26.582Z,979.13
2023-01-09T08:29:26.572Z,979.09
2023-01-09T08:30:26.570Z,979.06
2023-01-09T08:31:26.600Z,979.04
2023-01-09T08:32:26.555Z,979.14
2023-01-09T08:33:26.535Z,979.16
2023-01-09T08:34:26.557Z,979.11
2023-01-09T08:35:26.517Z,979.14
2023-01-09T08:36:26.533Z,979.16
2023-01-09T08:37:26.506Z,979.20
2023-01-09T08:38:26.487Z,979.14
2023-01-09T08:39:26.468Z,979.21
2023-01-09T08:40:26.457Z,979.29
2023-01-09T08:41:26.452Z,979.31
2023-01-09T08:42:26.447Z,979.25
2023-01-09T08:43:26.433Z,979.29
2023-01-09T08:44:26.422Z,979.31
2023-01-09T08:45:26.468Z,979.20
2023-01-09T08:46:26.416Z,979.27
2023-01-09T08:47:26.406Z,979.24
2023-01-09T08:48:26.378Z,979.28
2023-01-09T08:49:26.378Z,979.20
2023-01-09T08:50:26.364Z,979.32
2023-01-09T08:51:26.348Z,979.27
2023-01-09T08:52:26.339Z,979.26
2023-01-09T08:53:26.330Z,979.27
2023-01-09T08:54:26.310Z,979.27
2023-01-09T08:55:26.299Z,979.32
2023-01-09T08:56:26.281Z,979.36
2023-01-09T08:57:26.307Z,979.35
2023-01-09T08:58:26.263Z,979.49
2023-01-09T08:59:26.267Z,979.39
2023-01-09T09:00:26.252Z,979.45
2023-01-09T09:01:26.314Z,979.33
2023-01-09T09:02:26.307Z,979.43
2023-01-09T09:03:26.303Z,979.41
2023-01-09T09:04:26.212Z,979.40
2023-01-09T09:05:26.199Z,979.47
2023-01-09T09:06:26.240Z,979.47
2023-01-09T09:07:26.200Z,979.56
2023-01-09T09:08:26.165Z,979.57
2023-01-09T09:09:26.163Z,979.48
2023-01-09T09:10:26.142Z,979.44
2023-01-09T09:11:26.135Z,979.55
2023-01-09T09:12:26.139Z,979.58
2023-01-09T09:13:26.118Z,979.60
2023-01-09T09:14:26.096Z,979.49
2023-01-09T09:15:26.101Z,979.59
2023-01-09T09:16:26.187Z,979.53
2023-01-09T09:17:26.099Z,979.53
2023-01-09T09:18:26.066Z,979.59
2023-01-09T09:19:26.047Z,979.59
2023-01-09T09:20:26.038Z,979.58
2023-01-09T09:21:26.028Z,979.64
2023-01-09T09:22:26.029Z,979.65
2023-01-09T09:23:26.012Z,979.66
2023-01-09T09:24:25.999Z,979.63
2023-01-09T09:25:25.995Z,979.70
2023-01-09T09:26:25.977Z,979.66
2023-01-09T09:27:25.988Z,979.63
2023-01-09T09:28:25.951Z,979.69
2023-01-09T09:29:25.950Z,979.68
2023-01-09T09:30:25.946Z,979.72
2023-01-09T09:31:25.970Z,979.76
2023-01-09T09:32:25.932Z,979.67
2023-01-09T09:33:25.907Z,979.73
2023-01-09T09:34:25.897Z,979.70
2023-01-09T09:35:25.887Z,979.74
2023-01-09T09:36:25.882Z,979.70
2023-01-09T09:37:25.875Z,979.73
2023-01-09T09:38:25.853Z,979.74
2023-01-09T09:39:25.843Z,979.75
2023-01-09T09:40:25.833Z,979.77
2023-01-09T09:41:25.824Z,979.80
2023-01-09T09:42:25.822Z,979.74
2023-01-09T09:43:25.805Z,979.89
2023-01-09T09:44:25.793Z,979.78
2023-01-09T09:45:25.780Z,979.76
2023-01-09T09:46:25.815Z,979.89
2023-01-09T09:47:25.803Z,979.83
2023-01-09T09:48:25.748Z,979.79
2023-01-09T09:49:25.736Z,979.82
2023-01-09T09:50:25.740Z,979.83
2023-01-09T09:51:25.713Z,979.82
2023-01-09T09:52:25.732Z,979.78
2023-01-09T09:53:25.896Z,979.82
2023-01-09T09:54:25.699Z,979.71
2023-01-09T09:55:25.675Z,979.80
2023-01-09T09:56:25.673Z,979.74
2023-01-09T09:57:25.672Z,979.76
2023-01-09T09:58:25.649Z,979.82
2023-01-09T09:59:27.034Z,979.75
2023-01-09T10:00:25.634Z,979.87
2023-01-09T10:01:25.630Z,979.81
2023-01-09T10:02:25.642Z,979.77
2023-01-09T10:03:33.332Z,979.83
2023-01-09T10:04:26.581Z,979.78
2023-01-09T10:05:25.562Z,979.80
2023-01-09T10:06:25.563Z,979.84
2023-01-09T10:07:25.573Z,979.80
2023-01-09T10:08:25.540Z,979.67
2023-01-09T10:09:25.521Z,979.67
2023-01-09T10:10:25.536Z,979.64
2023-01-09T10:11:25.503Z,979.76
2023-01-09T10:12:25.503Z,979.72
2023-01-09T10:13:25.496Z,979.70
2023-01-09T10:14:25.472Z,979.84
2023-01-09T10:15:25.466Z,979.66
2023-01-09T10:16:25.505Z,979.75
2023-01-09T10:17:25.445Z,979.67
2023-01-09T10:18:25.470Z,979.70
2023-01-09T10:19:25.418Z,979.69
2023-01-09T10:20:25.436Z,979.72
2023-01-09T10:21:25.396Z,979.68
2023-01-09T10:22:25.406Z,979.67
2023-01-09T10:23:25.396Z,979.69
2023-01-09T10:24:25.378Z,979.66
2023-01-09T10:25:25.388Z,979.58
2023-01-09T10:26:25.363Z,979.60
2023-01-09T10:27:25.345Z,979.66
2023-01-09T10:28:25.349Z,979.64
2023-01-09T10:29:25.329Z,979.63
2023-01-09T10:30:25.331Z,979.62
2023-01-09T10:31:25.312Z,979.72
2023-01-09T10:32:25.292Z,979.64
2023-01-09T10:33:25.290Z,979.64
2023-01-09T10:34:25.282Z,979.71
2023-01-09T10:35:26.207Z,979.66
2023-01-09T10:36:25.279Z,979.61
2023-01-09T10:37:25.242Z,979.69
2023-01-09T10:38:25.236Z,979.70
2023-01-09T10:39:25.209Z,979.65
2023-01-09T10:40:25.232Z,979.67
2023-01-09T10:41:25.222Z,979.67
2023-01-09T10:42:25.190Z,979.63
2023-01-09T10:43:25.180Z,979.72
2023-01-09T10:44:25.164Z,979.68
2023-01-09T10:45:25.146Z,979.67
2023-01-09T10:46:25.169Z,979.68
2023-01-09T10:47:25.151Z,979.66
2023-01-09T10:48:25.135Z,979.70
2023-01-09T10:49:25.098Z,979.65
2023-01-09T10:50:25.105Z,979.71
2023-01-09T10:51:25.092Z,979.66
2023-01-09T10:52:25.086Z,979.70
2023-01-09T10:53:25.067Z,979.61
2023-01-09T10:54:25.057Z,979.73
2023-01-09T10:55:25.047Z,979.60
2023-01-09T10:56:25.055Z,979.64
2023-01-09T10:57:25.017Z,979.66
2023-01-09T10:58:25.018Z,979.65
2023-01-09T10:59:24.998Z,979.56
2023-01-09T11:00:25.119Z,979.65
2023-01-09T11:01:24.977Z,979.64
2023-01-09T11:02:25.029Z,979.61
2023-01-09T11:03:25.001Z,979.57
2023-01-09T11:04:24.948Z,979.63
2023-01-09T11:05:24.987Z,979.67
2023-01-09T11:06:24.933Z,979.68
2023-01-09T11:07:24.911Z,979.65
2023-01-09T11:08:24.918Z,979.60
2023-01-09T11:09:24.895Z,979.62
2023-01-09T11:10:27.619Z,979.66
2023-01-09T11:11:24.877Z,979.61
2023-01-09T11:12:24.862Z,979.70
2023-01-09T11:13:24.864Z,979.66
2023-01-09T11:14:24.843Z,979.62
2023-01-09T11:15:24.823Z,979.64
2023-01-09T11:16:24.856Z,979.62
2023-01-09T11:17:24.805Z,979.56
2023-01-09T11:18:24.846Z,979.59
2023-01-09T11:19:24.790Z,979.60
2023-01-09T11:20:24.776Z,979.61
2023-01-09T11:21:24.763Z,979.66
2023-01-09T11:22:24.756Z,979.58
2023-01-09T11:23:24.756Z,979.66
2023-01-09T11:24:24.736Z,979.71
2023-01-09T11:25:24.727Z,979.77
2023-01-09T11:26:24.722Z,979.75
2023-01-09T11:27:24.753Z,979.75
2023-01-09T11:28:24.711Z,979.66
2023-01-09T11:29:24.687Z,979.67
2023-01-09T11:30:24.669Z,979.72
2023-01-09T11:31:24.712Z,979.72
2023-01-09T11:32:24.665Z,979.68
2023-01-09T11:33:24.663Z,979.79
2023-01-09T11:34:24.636Z,979.78
2023-01-09T11:35:24.610Z,979.78
2023-01-09T11:36:25.941Z,979.73
2023-01-09T11:37:24.593Z,979.70
2023-01-09T11:38:24.600Z,979.68
2023-01-09T11:39:24.575Z,979.82
2023-01-09T11:40:24.571Z,979.83
2023-01-09T11:41:24.557Z,979.66
2023-01-09T11:42:24.553Z,979.71
2023-01-09T11:43:24.543Z,979.68
2023-01-09T11:44:24.535Z,979.74
2023-01-09T11:45:24.503Z,979.65
2023-01-09T11:46:24.568Z,979.71
2023-01-09T11:47:24.496Z,979.61
2023-01-09T11:48:24.498Z,979.71
2023-01-09T11:49:24.464Z,979.68
2023-01-09T11:50:24.455Z,979.71
2023-01-09T11:51:24.456Z,979.65
2023-01-09T11:52:24.443Z,979.65
2023-01-09T11:53:24.436Z,979.74
2023-01-09T11:54:24.416Z,979.74
2023-01-09T11:55:29.349Z,979.76
2023-01-09T11:56:25.401Z,979.79
2023-01-09T11:57:24.377Z,979.74
2023-01-09T11:58:24.387Z,979.73
2023-01-09T11:59:24.363Z,979.77
2023-01-09T12:00:24.367Z,979.75
2023-01-09T12:01:24.338Z,979.69
2023-01-09T12:02:24.347Z,979.67
2023-01-09T12:03:24.361Z,979.71
2023-01-09T12:04:24.309Z,979.69
2023-01-09T12:05:24.323Z,979.72
2023-01-09T12:06:24.298Z,979.71
2023-01-09T12:07:24.275Z,979.68
2023-01-09T12:08:24.309Z,979.79
2023-01-09T12:09:24.275Z,979.77
2023-01-09T12:10:24.251Z,979.75
2023-01-09T12:11:24.236Z,979.88
2023-01-09T12:12:24.224Z,979.85
2023-01-09T12:13:24.235Z,979.78
2023-01-09T12:14:24.210Z,979.80
2023-01-09T12:15:24.195Z,979.78
2023-01-09T12:16:24.231Z,979.87
2023-01-09T12:17:24.175Z,979.77
2023-01-09T12:18:24.171Z,979.79
2023-01-09T12:19:24.155Z,979.75
2023-01-09T12:20:24.145Z,979.87
2023-01-09T12:21:24.127Z,979.79
2023-01-09T12:22:24.172Z,979.85
2023-01-09T12:23:24.124Z,979.82
2023-01-09T12:24:24.096Z,979.87
2023-01-09T12:25:24.087Z,979.83
2023-01-09T12:26:24.092Z,979.87
2023-01-09T12:27:24.068Z,979.83
2023-01-09T12:28:24.067Z,979.84
2023-01-09T12:29:24.068Z,979.85
2023-01-09T12:30:24.049Z,979.80
2023-01-09T12:31:24.067Z,979.82
2023-01-09T12:32:24.019Z,979.82
2023-01-09T12:33:24.008Z,979.81
2023-01-09T12:34:23.994Z,979.82
2023-01-09T12:35:23.995Z,979.77
2023-01-09T12:36:23.986Z,979.79
2023-01-09T12:37:23.964Z,979.78
2023-01-09T12:38:23.964Z,979.81
2023-01-09T12:39:23.940Z,979.77